Time,TemperatureF,DewpointF,PressureIn,WindDirection,WindDirectionDegrees,WindSpeedMPH,WindSpeedGustMPH,Humidity,HourlyPrecipIn,Conditions,Clouds,dailyrainin,SoftwareType,DateUTC
2013-09-24 00:00:00,57.4,57.1,29.84,ESE,112,0.0,-999.0,99,-99.99,,,0.00,Acu-Link.com,2013-09-24 04:00:00,
2013-09-24 00:15:00,57.4,57.1,29.84,East,90,0.0,-999.0,99,-99.99,,,0.00,Acu-Link.com,2013-09-24 04:15:00,
2013-09-24 00:30:00,56.7,56.4,29.84,ESE,112,0.0,-999.0,99,-99.99,,,0.00,Acu-Link.com,2013-09-24 04:30:00,
2013-09-24 00:45:00,56.5,56.2,29.84,SSE,157,0.0,-999.0,99,-99.99,,,0.00,Acu-Link.com,2013-09-24 04:45:00,
2013-09-24 01:00:00,56.3,56.0,29.84,SSE,157,0.0,-999.0,99,-99.99,,,0.00,Acu-Link.com,2013-09-24 05:00:00,
2013-09-24 01:15:00,55.8,55.5,29.84,South,180,0.0,-999.0,99,-99.99,,,0.00,Acu-Link.com,2013-09-24 05:15:00,
2013-09-24 01:31:00,55.6,55.3,29.84,SE,135,0.0,-999.0,99,-99.99,,,0.00,Acu-Link.com,2013-09-24 05:31:00,
2013-09-24 01:46:00,55.2,54.9,29.84,SE,135,0.0,-999.0,99,-99.99,,,0.00,Acu-Link.com,2013-09-24 05:46:00,
2013-09-24 02:01:00,55.0,54.7,29.83,East,90,0.0,-999.0,99,-99.99,,,0.00,Acu-Link.com,2013-09-24 06:01:00,
2013-09-24 02:16:00,54.5,54.2,29.84,East,90,0.0,-999.0,99,-99.99,,,0.00,Acu-Link.com,2013-09-24 06:16:00,
2013-09-24 02:31:00,54.9,54.6,29.84,South,180,0.0,-999.0,99,-99.99,,,0.00,Acu-Link.com,2013-09-24 06:31:00,
2013-09-24 02:46:00,54.7,54.4,29.84,South,180,0.0,-999.0,99,-99.99,,,0.00,Acu-Link.com,2013-09-24 06:46:00,
2013-09-24 03:01:00,54.5,54.2,29.83,ENE,67,0.0,-999.0,99,-99.99,,,0.00,Acu-Link.com,2013-09-24 07:01:00,
2013-09-24 03:16:00,54.5,54.2,29.83,South,180,0.0,-999.0,99,-99.99,,,0.00,Acu-Link.com,2013-09-24 07:16:00,
2013-09-24 03:31:00,54.1,53.8,29.83,ESE,112,0.0,-999.0,99,-99.99,,,0.00,Acu-Link.com,2013-09-24 07:31:00,
2013-09-24 03:47:00,53.8,53.5,29.83,ESE,112,0.0,-999.0,99,-99.99,,,0.00,Acu-Link.com,2013-09-24 07:47:00,
2013-09-24 04:02:00,53.8,53.5,29.83,SE,135,0.0,-999.0,99,-99.99,,,0.00,Acu-Link.com,2013-09-24 08:02:00,
2013-09-24 04:17:00,53.8,53.5,29.83,SE,135,0.0,-999.0,99,-99.99,,,0.00,Acu-Link.com,2013-09-24 08:17:00,
2013-09-24 04:32:00,53.4,53.1,29.83,East,90,0.0,-999.0,99,-99.99,,,0.00,Acu-Link.com,2013-09-24 08:32:00,
2013-09-24 04:47:00,53.6,53.3,29.83,SSE,157,0.0,-999.0,99,-99.99,,,0.00,Acu-Link.com,2013-09-24 08:47:00,
2013-09-24 05:03:00,53.2,52.9,29.83,ESE,112,0.0,-999.0,99,-99.99,,,0.00,Acu-Link.com,2013-09-24 09:03:00,
2013-09-24 05:18:00,53.2,52.9,29.84,SE,135,0.0,-999.0,99,-99.99,,,0.00,Acu-Link.com,2013-09-24 09:18:00,
2013-09-24 05:33:00,53.4,53.1,29.85,East,90,0.0,-999.0,99,-99.99,,,0.00,Acu-Link.com,2013-09-24 09:33:00,
2013-09-24 05:48:00,53.2,52.9,29.85,South,180,0.0,-999.0,99,-99.99,,,0.00,Acu-Link.com,2013-09-24 09:48:00,
2013-09-24 06:03:00,53.1,52.8,29.86,SE,135,0.0,-999.0,99,-99.99,,,0.00,Acu-Link.com,2013-09-24 10:03:00,
2013-09-24 06:18:00,52.9,52.6,29.86,South,180,0.0,-999.0,99,-99.99,,,0.00,Acu-Link.com,2013-09-24 10:18:00,
2013-09-24 06:33:00,53.1,52.8,29.86,SE,135,0.0,-999.0,99,-99.99,,,0.00,Acu-Link.com,2013-09-24 10:33:00,
2013-09-24 06:48:00,53.2,52.9,29.86,SE,135,0.0,-999.0,99,-99.99,,,0.00,Acu-Link.com,2013-09-24 10:48:00,
2013-09-24 07:04:00,53.6,53.3,29.86,East,90,0.0,-999.0,99,-99.99,,,0.00,Acu-Link.com,2013-09-24 11:04:00,
2013-09-24 07:19:00,54.3,54.0,29.87,ESE,112,0.0,-999.0,99,-99.99,,,0.00,Acu-Link.com,2013-09-24 11:19:00,
2013-09-24 07:34:00,54.9,54.6,29.87,SSE,157,0.0,-999.0,99,-99.99,,,0.00,Acu-Link.com,2013-09-24 11:34:00,
2013-09-24 07:49:00,55.4,55.1,29.87,SE,135,0.0,-999.0,99,-99.99,,,0.00,Acu-Link.com,2013-09-24 11:49:00,
2013-09-24 08:04:00,56.1,55.8,29.87,ESE,112,0.0,-999.0,99,-99.99,,,0.00,Acu-Link.com,2013-09-24 12:04:00,
2013-09-24 08:19:00,56.7,56.4,29.87,East,90,0.0,-999.0,99,-99.99,,,0.00,Acu-Link.com,2013-09-24 12:19:00,
2013-09-24 08:34:00,57.4,57.1,29.87,ENE,67,1.1,-999.0,99,-99.99,,,0.00,Acu-Link.com,2013-09-24 12:34:00,
2013-09-24 08:49:00,57.9,57.6,29.87,ESE,112,0.0,-999.0,99,-99.99,,,0.00,Acu-Link.com,2013-09-24 12:49:00,
2013-09-24 09:04:00,59.0,58.7,29.87,SSW,202,0.0,-999.0,99,-99.99,,,0.00,Acu-Link.com,2013-09-24 13:04:00,
2013-09-24 09:20:00,60.1,59.8,29.87,SSW,202,0.0,-999.0,99,-99.99,,,0.00,Acu-Link.com,2013-09-24 13:20:00,
2013-09-24 09:35:00,61.2,60.9,29.87,East,90,0.0,-999.0,99,-99.99,,,0.00,Acu-Link.com,2013-09-24 13:35:00,
2013-09-24 09:50:00,63.0,62.7,29.87,NNW,337,0.0,-999.0,99,-99.99,,,0.00,Acu-Link.com,2013-09-24 13:50:00,
2013-09-24 10:05:00,63.7,63.4,29.87,WNW,292,0.0,-999.0,99,-99.99,,,0.00,Acu-Link.com,2013-09-24 14:05:00,
2013-09-24 10:20:00,64.2,63.9,29.86,East,90,0.0,-999.0,99,-99.99,,,0.00,Acu-Link.com,2013-09-24 14:20:00,
2013-09-24 10:35:00,65.7,64.5,29.86,ESE,112,0.0,-999.0,96,-99.99,,,0.00,Acu-Link.com,2013-09-24 14:35:00,
2013-09-24 10:50:00,67.6,65.2,29.86,NE,45,0.0,-999.0,92,-99.99,,,0.00,Acu-Link.com,2013-09-24 14:50:00,
2013-09-24 11:05:00,68.0,65.0,29.86,NE,45,1.1,-999.0,90,-99.99,,,0.00,Acu-Link.com,2013-09-24 15:05:00,
2013-09-24 11:20:00,69.6,65.9,29.86,NNE,22,0.0,-999.0,88,-99.99,,,0.00,Acu-Link.com,2013-09-24 15:20:00,
2013-09-24 11:35:00,71.1,65.3,29.86,West,270,2.7,-999.0,82,-99.99,,,0.00,Acu-Link.com,2013-09-24 15:35:00,
2013-09-24 11:51:00,72.3,65.0,29.85,NW,315,1.7,-999.0,78,-99.99,,,0.00,Acu-Link.com,2013-09-24 15:51:00,
2013-09-24 12:06:00,72.1,65.9,29.85,ESE,112,2.7,-999.0,81,-99.99,,,0.00,Acu-Link.com,2013-09-24 16:06:00,
2013-09-24 12:21:00,71.2,64.3,29.84,West,270,2.2,-999.0,79,-99.99,,,0.00,Acu-Link.com,2013-09-24 16:21:00,
2013-09-24 12:36:00,71.4,64.2,29.84,WSW,247,0.0,-999.0,78,-99.99,,,0.00,Acu-Link.com,2013-09-24 16:36:00,
2013-09-24 12:51:00,72.3,64.7,29.84,West,270,1.7,-999.0,77,-99.99,,,0.00,Acu-Link.com,2013-09-24 16:51:00,
2013-09-24 13:06:00,72.1,64.9,29.83,SSW,202,0.0,-999.0,78,-99.99,,,0.00,Acu-Link.com,2013-09-24 17:06:00,
2013-09-24 13:21:00,72.7,64.7,29.82,SSE,157,0.0,-999.0,76,-99.99,,,0.00,Acu-Link.com,2013-09-24 17:21:00,
2013-09-24 13:36:00,74.1,65.3,29.81,WNW,292,0.0,-999.0,74,-99.99,,,0.00,Acu-Link.com,2013-09-24 17:36:00,
2013-09-24 13:51:00,73.9,65.5,29.81,SW,225,3.2,-999.0,75,-99.99,,,0.00,Acu-Link.com,2013-09-24 17:51:00,
2013-09-24 14:07:00,74.8,64.8,29.80,NW,315,1.1,-999.0,71,-99.99,,,0.00,Acu-Link.com,2013-09-24 18:07:00,
2013-09-24 14:22:00,74.1,66.0,29.80,West,270,2.2,-999.0,76,-99.99,,,0.00,Acu-Link.com,2013-09-24 18:22:00,
2013-09-24 14:37:00,73.2,65.2,29.80,SW,225,3.7,-999.0,76,-99.99,,,0.00,Acu-Link.com,2013-09-24 18:37:00,
2013-09-24 14:52:00,72.9,65.6,29.79,ESE,112,1.7,-999.0,78,-99.99,,,0.00,Acu-Link.com,2013-09-24 18:52:00,
2013-09-24 15:07:00,72.3,65.4,29.79,South,180,2.2,-999.0,79,-99.99,,,0.00,Acu-Link.com,2013-09-24 19:07:00,
2013-09-24 15:22:00,73.6,66.3,29.79,NW,315,2.2,-999.0,78,-99.99,,,0.00,Acu-Link.com,2013-09-24 19:22:00,
2013-09-24 15:37:00,72.0,65.5,29.78,SW,225,2.2,-999.0,80,-99.99,,,0.00,Acu-Link.com,2013-09-24 19:37:00,
2013-09-24 15:52:00,72.3,66.1,29.78,WSW,247,0.0,-999.0,81,-99.99,,,0.00,Acu-Link.com,2013-09-24 19:52:00,
2013-09-24 16:07:00,72.3,65.8,29.78,ESE,112,2.7,-999.0,80,-99.99,,,0.00,Acu-Link.com,2013-09-24 20:07:00,
2013-09-24 16:23:00,70.9,66.8,29.78,SSW,202,2.7,-999.0,87,-99.99,,,0.00,Acu-Link.com,2013-09-24 20:23:00,
2013-09-24 16:38:00,70.0,66.6,29.77,SSW,202,1.7,-999.0,89,-99.99,,,0.00,Acu-Link.com,2013-09-24 20:38:00,
2013-09-24 16:53:00,71.2,67.5,29.77,NW,315,0.0,-999.0,88,-99.99,,,0.00,Acu-Link.com,2013-09-24 20:53:00,
2013-09-24 17:08:00,72.0,68.2,29.76,SE,135,0.0,-999.0,88,-99.99,,,0.00,Acu-Link.com,2013-09-24 21:08:00,
2013-09-24 17:23:00,71.6,67.2,29.75,ENE,67,0.0,-999.0,86,-99.99,,,0.00,Acu-Link.com,2013-09-24 21:23:00,
2013-09-24 17:38:00,72.9,68.1,29.75,WSW,247,0.0,-999.0,85,-99.99,,,0.00,Acu-Link.com,2013-09-24 21:38:00,
2013-09-24 17:53:00,71.1,67.0,29.75,SE,135,0.0,-999.0,87,-99.99,,,0.00,Acu-Link.com,2013-09-24 21:53:00,
2013-09-24 18:08:00,71.2,67.8,29.75,SW,225,0.0,-999.0,89,-99.99,,,0.00,Acu-Link.com,2013-09-24 22:08:00,
2013-09-24 18:23:00,71.2,67.5,29.75,SSW,202,1.7,-999.0,88,-99.99,,,0.00,Acu-Link.com,2013-09-24 22:23:00,
2013-09-24 18:39:00,70.3,67.5,29.75,East,90,0.0,-999.0,91,-99.99,,,0.00,Acu-Link.com,2013-09-24 22:39:00,
2013-09-24 18:54:00,70.0,67.2,29.75,South,180,0.0,-999.0,91,-99.99,,,0.00,Acu-Link.com,2013-09-24 22:54:00,
2013-09-24 19:09:00,69.1,67.3,29.74,East,90,0.0,-999.0,94,-99.99,,,0.00,Acu-Link.com,2013-09-24 23:09:00,
2013-09-24 19:24:00,67.8,66.9,29.74,South,180,0.0,-999.0,97,-99.99,,,0.00,Acu-Link.com,2013-09-24 23:24:00,
2013-09-24 19:39:00,67.8,67.2,29.73,WNW,292,0.0,-999.0,98,-99.99,,,0.00,Acu-Link.com,2013-09-24 23:39:00,
2013-09-24 19:54:00,67.3,67.0,29.72,ENE,67,0.0,-999.0,99,-99.99,,,0.00,Acu-Link.com,2013-09-24 23:54:00,
2013-09-24 20:09:00,67.1,66.8,29.73,West,270,0.0,-999.0,99,-99.99,,,0.00,Acu-Link.com,2013-09-25 00:09:00,
2013-09-24 20:24:00,67.1,66.8,29.74,SW,225,0.0,-999.0,99,-99.99,,,0.00,Acu-Link.com,2013-09-25 00:24:00,
2013-09-24 20:39:00,67.1,66.8,29.75,ESE,112,0.0,-999.0,99,-99.99,,,0.00,Acu-Link.com,2013-09-25 00:39:00,
2013-09-24 20:55:00,66.7,66.4,29.74,NE,45,0.0,-999.0,99,-99.99,,,0.00,Acu-Link.com,2013-09-25 00:55:00,
2013-09-24 21:10:00,66.7,66.4,29.74,ESE,112,0.0,-999.0,99,-99.99,,,0.00,Acu-Link.com,2013-09-25 01:10:00,
2013-09-24 21:25:00,66.7,66.4,29.74,East,90,0.0,-999.0,99,-99.99,,,0.00,Acu-Link.com,2013-09-25 01:25:00,
2013-09-24 21:40:00,66.6,66.3,29.75,South,180,0.0,-999.0,99,-99.99,,,0.00,Acu-Link.com,2013-09-25 01:40:00,
2013-09-24 21:55:00,66.6,66.3,29.75,SSW,202,0.0,-999.0,99,-99.99,,,0.00,Acu-Link.com,2013-09-25 01:55:00,
2013-09-24 22:10:00,66.6,66.3,29.75,SSW,202,0.0,-999.0,99,-99.99,,,0.00,Acu-Link.com,2013-09-25 02:10:00,
2013-09-24 22:25:00,66.4,66.1,29.73,NE,45,0.0,-999.0,99,-99.99,,,0.00,Acu-Link.com,2013-09-25 02:25:00,
2013-09-24 22:40:00,66.2,65.9,29.74,NE,45,0.0,-999.0,99,-99.99,,,0.00,Acu-Link.com,2013-09-25 02:40:00,
2013-09-24 22:55:00,66.2,65.9,29.73,West,270,0.0,-999.0,99,-99.99,,,0.00,Acu-Link.com,2013-09-25 02:55:00,
2013-09-24 23:10:00,66.0,65.7,29.74,SSE,157,0.0,-999.0,99,-99.99,,,0.00,Acu-Link.com,2013-09-25 03:10:00,
2013-09-24 23:26:00,66.0,65.7,29.73,SSE,157,0.0,-999.0,99,-99.99,,,0.00,Acu-Link.com,2013-09-25 03:26:00,
2013-09-24 23:41:00,66.0,65.7,29.72,East,90,0.0,-999.0,99,-99.99,,,0.00,Acu-Link.com,2013-09-25 03:41:00,
2013-09-24 23:56:00,65.8,65.5,29.72,SE,135,0.0,-999.0,99,-99.99,,,0.00,Acu-Link.com,2013-09-25 03:56:00,